Time;durP1;ratioP1;P1;durP2;ratioP2;P2;SDS_P1;SDS_P2;PMS_P1;PMS_P2;Temp;Humidity;BMP_temperature;BMP_pressure;BME280_temperature;BME280_humidity;BME280_pressure;Samples;Min_cycle;Max_cycle;Signal;HPM_P1;HPM_P2
2021/10/23 00:00:00;;;;;;;21.23;13.15;;;;;;;10.26;74.09;95131.38;5113920;27;20118;-70
2021/10/23 00:02:26;;;;;;;17.90;11.45;;;;;;;10.37;73.74;95127.97;5132639;27;20495;-69
2021/10/23 00:04:51;;;;;;;19.27;12.85;;;;;;;10.35;74.00;95129.84;5131031;27;20031;-68
2021/10/23 00:07:17;;;;;;;18.90;11.65;;;;;;;10.42;73.57;95128.47;5130850;27;20031;-69
2021/10/23 00:09:42;;;;;;;19.08;11.35;;;;;;;10.41;73.67;95120.78;5130464;27;20043;-69
2021/10/23 00:12:08;;;;;;;16.60;11.73;;;;;;;10.49;73.50;95121.00;5130954;27;20030;-69
2021/10/23 00:14:33;;;;;;;17.33;11.80;;;;;;;10.56;73.13;95111.81;5113632;27;20084;-69
2021/10/23 00:16:59;;;;;;;17.58;10.95;;;;;;;10.63;73.25;95120.75;5130885;27;20088;-69
2021/10/23 00:19:24;;;;;;;16.85;10.68;;;;;;;10.64;72.83;95114.63;5096737;27;20298;-69
2021/10/23 00:21:49;;;;;;;20.52;11.70;;;;;;;10.66;72.97;95117.09;5130752;27;20034;-69
2021/10/23 00:24:15;;;;;;;20.67;11.52;;;;;;;10.68;72.92;95110.00;5113491;27;20104;-69
2021/10/23 00:26:40;;;;;;;20.63;11.93;;;;;;;10.74;72.69;95112.13;5132091;27;20031;-69
2021/10/23 00:29:06;;;;;;;17.30;10.25;;;;;;;10.71;72.50;95089.81;5131908;27;20031;-69
2021/10/23 00:31:31;;;;;;;19.98;11.35;;;;;;;10.83;72.40;95110.56;5130435;27;20078;-69
2021/10/23 00:33:57;;;;;;;16.95;11.73;;;;;;;10.86;72.04;95110.31;5113475;28;20019;-69
2021/10/23 00:36:22;;;;;;;19.63;11.15;;;;;;;10.85;72.53;95106.09;5131945;27;20039;-69
2021/10/23 00:38:48;;;;;;;16.23;11.15;;;;;;;10.83;72.38;95113.16;5113333;28;20023;-69
2021/10/23 00:41:13;;;;;;;15.95;11.00;;;;;;;10.81;72.11;95096.84;5130469;27;20221;-69
2021/10/23 00:43:40;;;;;;;21.95;11.77;;;;;;;10.88;72.17;95111.84;5096257;28;20031;-68
2021/10/23 00:46:06;;;;;;;16.88;10.85;;;;;;;10.88;71.97;95104.06;5096828;28;20035;-69
2021/10/23 00:48:31;;;;;;;17.20;11.80;;;;;;;10.91;71.81;95101.22;5130473;28;20499;-69
2021/10/23 00:50:57;;;;;;;16.25;11.50;;;;;;;10.94;71.74;95103.56;5131728;27;20042;-69
2021/10/23 00:53:22;;;;;;;21.40;12.30;;;;;;;10.94;71.95;95105.34;5113314;28;20072;-69
2021/10/23 00:55:48;;;;;;;17.10;11.95;;;;;;;10.87;71.88;95089.41;5130333;28;20059;-69
2021/10/23 00:58:14;;;;;;;16.73;11.10;;;;;;;10.88;71.95;95091.06;5113294;28;20533;-69
2021/10/23 01:00:39;;;;;;;18.75;12.23;;;;;;;10.92;72.00;95097.69;5130269;28;20042;-69
2021/10/23 01:03:05;;;;;;;17.60;11.00;;;;;;;10.93;71.99;95086.31;5131522;27;20450;-69
2021/10/23 01:05:31;;;;;;;19.00;12.13;;;;;;;10.85;71.64;95080.91;5130295;28;20465;-69
2021/10/23 01:07:56;;;;;;;16.90;12.40;;;;;;;10.91;71.50;95080.41;5113109;28;20088;-69
2021/10/23 01:10:21;;;;;;;23.08;12.35;;;;;;;10.89;71.36;95065.88;5096132;28;20031;-69
2021/10/23 01:12:47;;;;;;;20.50;12.40;;;;;;;10.93;71.26;95077.72;5113014;28;20035;-69
2021/10/23 01:15:18;;;;;;;18.35;13.45;;;;;;;10.95;71.36;95078.41;5130280;28;20031;-69
2021/10/23 01:17:44;;;;;;;21.60;13.82;;;;;;;10.93;71.26;95088.09;5130009;27;20043;-69
2021/10/23 01:20:10;;;;;;;20.52;12.82;;;;;;;10.88;71.52;95085.03;5112979;28;20020;-69
2021/10/23 01:22:36;;;;;;;22.63;16.35;;;;;;;10.78;71.44;95091.91;5116958;27;20126;-69
2021/10/23 01:25:01;;;;;;;25.08;17.38;;;;;;;10.78;71.90;95094.50;5116956;27;20034;-69
2021/10/23 01:27:26;;;;;;;25.25;17.30;;;;;;;10.73;71.67;95093.13;5135706;27;20027;-69
2021/10/23 01:29:52;;;;;;;25.75;16.58;;;;;;;10.64;71.78;95082.59;5133874;27;20020;-69
2021/10/23 01:32:17;;;;;;;27.60;15.82;;;;;;;10.63;71.78;95089.56;5116621;27;20051;-69
2021/10/23 01:34:43;;;;;;;28.02;18.08;;;;;;;10.58;72.01;95088.28;5116758;27;20035;-68
2021/10/23 01:37:08;;;;;;;27.60;16.48;;;;;;;10.53;72.11;95096.47;5135402;27;20084;-69
2021/10/23 01:39:34;;;;;;;23.85;14.55;;;;;;;10.43;72.10;95085.13;5135062;27;20035;-69
2021/10/23 01:42:00;;;;;;;23.13;15.18;;;;;;;10.45;72.29;95104.84;5116797;27;20042;-69
2021/10/23 01:44:31;;;;;;;20.45;14.57;;;;;;;10.36;72.24;95099.53;5099736;27;20023;-69
2021/10/23 01:46:56;;;;;;;;;;;;;;;10.28;72.92;95102.72;5117651;27;20027;-66
2021/10/23 01:49:22;;;;;;;21.17;13.32;;;;;;;10.17;73.04;95098.31;5134900;27;19918;-69
2021/10/23 01:51:47;;;;;;;31.38;17.08;;;;;;;10.15;72.91;95091.59;5133580;27;20406;-69
2021/10/23 01:54:13;;;;;;;23.73;13.15;;;;;;;10.04;73.45;95074.25;5133534;27;20031;-69
2021/10/23 01:56:39;;;;;;;21.80;13.77;;;;;;;10.11;73.08;95079.78;5116396;27;20038;-69
2021/10/23 01:59:05;;;;;;;24.83;13.68;;;;;;;10.09;73.18;95092.88;5133429;27;20027;-69
2021/10/23 02:01:31;;;;;;;20.77;13.20;;;;;;;10.00;73.30;95083.19;5133336;27;20106;-69
2021/10/23 02:03:56;;;;;;;28.60;16.67;;;;;;;9.95;73.25;95085.34;5133289;27;20038;-69
2021/10/23 02:06:22;;;;;;;28.73;15.93;;;;;;;9.91;73.33;95086.50;5099132;27;20034;-69
2021/10/23 02:08:47;;;;;;;30.20;19.45;;;;;;;9.88;73.52;95081.53;5133215;27;20476;-69
2021/10/23 02:11:13;;;;;;;21.70;15.10;;;;;;;9.83;73.79;95087.06;5133167;27;20031;-69
2021/10/23 02:13:38;;;;;;;25.45;14.93;;;;;;;9.73;73.94;95083.53;5133136;27;20054;-69
2021/10/23 02:16:04;;;;;;;22.73;14.45;;;;;;;9.79;73.90;95109.84;5134378;27;20035;-69
2021/10/23 02:18:30;;;;;;;23.52;15.00;;;;;;;9.65;74.00;95110.03;5134549;27;20019;-69
2021/10/23 02:20:55;;;;;;;22.48;15.32;;;;;;;9.60;73.94;95119.94;5134249;27;20031;-69
2021/10/23 02:23:21;;;;;;;21.50;14.25;;;;;;;9.56;74.00;95106.38;5132871;27;20055;-69
2021/10/23 02:25:47;;;;;;;19.17;12.88;;;;;;;9.63;74.25;95114.50;5132769;27;20071;-69
2021/10/23 02:28:12;;;;;;;22.67;13.48;;;;;;;9.65;74.49;95109.22;5134093;27;20030;-69
2021/10/23 02:30:38;;;;;;;20.13;12.73;;;;;;;9.72;74.40;95125.97;5132741;27;20043;-70
2021/10/23 02:33:03;;;;;;;21.95;13.70;;;;;;;9.66;74.40;95114.28;5132321;27;20043;-69
2021/10/23 02:35:28;;;;;;;20.48;11.40;;;;;;;9.67;74.57;95121.13;5115578;27;20034;-69
2021/10/23 02:37:54;;;;;;;19.52;12.38;;;;;;;9.61;74.47;95131.94;5133808;27;20027;-69
2021/10/23 02:40:19;;;;;;;20.15;13.25;;;;;;;9.55;74.38;95130.63;5132515;27;20031;-69
2021/10/23 02:42:45;;;;;;;19.80;11.85;;;;;;;9.54;74.15;95133.34;5115256;27;20499;-69
2021/10/23 02:45:10;;;;;;;20.63;12.68;;;;;;;9.51;74.11;95131.81;5133781;27;20412;-69
2021/10/23 02:47:36;;;;;;;22.38;12.68;;;;;;;9.53;74.28;95132.53;5134007;27;20063;-69
2021/10/23 02:50:03;;;;;;;22.17;13.90;;;;;;;9.54;74.75;95133.34;5133714;27;20057;-69
2021/10/23 02:52:29;;;;;;;22.55;14.02;;;;;;;9.56;74.57;95136.66;5132413;27;20035;-69
2021/10/23 02:54:54;;;;;;;22.23;12.63;;;;;;;9.57;74.53;95128.75;5132263;27;20061;-69
2021/10/23 02:57:20;;;;;;;25.95;15.25;;;;;;;9.58;74.98;95122.66;5132410;27;20027;-69
2021/10/23 02:59:45;;;;;;;24.00;15.45;;;;;;;9.62;75.04;95138.81;5115110;27;20081;-69
2021/10/23 03:02:11;;;;;;;24.17;14.27;;;;;;;9.70;74.90;95136.47;5115003;27;20405;-69
2021/10/23 03:04:36;;;;;;;23.02;14.18;;;;;;;9.72;74.69;95131.16;5133311;27;20481;-69
2021/10/23 03:07:02;;;;;;;24.27;14.48;;;;;;;9.75;74.78;95138.69;5132182;27;20427;-69
2021/10/23 03:09:27;;;;;;;21.30;14.13;;;;;;;9.78;74.52;95136.72;5131999;27;20408;-69
2021/10/23 03:11:53;;;;;;;19.02;12.65;;;;;;;9.73;74.43;95119.84;5132017;27;20101;-69
2021/10/23 03:14:18;;;;;;;24.00;13.65;;;;;;;9.79;74.48;95125.41;5114859;27;20042;-69
2021/10/23 03:16:44;;;;;;;21.92;13.63;;;;;;;9.83;74.46;95129.44;5131916;27;20028;-69
2021/10/23 03:19:09;;;;;;;18.65;12.93;;;;;;;9.84;74.13;95122.47;5133195;27;20031;-69
2021/10/23 03:21:34;;;;;;;21.73;13.15;;;;;;;9.83;74.46;95128.56;5097711;27;20436;-69
2021/10/23 03:24:00;;;;;;;22.73;12.75;;;;;;;9.82;74.16;95121.75;5131988;27;20065;-69
2021/10/23 03:26:25;;;;;;;20.30;12.38;;;;;;;9.81;74.24;95126.13;5131663;27;20030;-69
2021/10/23 03:28:51;;;;;;;19.40;12.52;;;;;;;9.77;73.97;95109.09;5131629;27;20031;-69
2021/10/23 03:31:16;;;;;;;21.55;13.48;;;;;;;9.83;73.81;95129.44;5131371;27;20047;-69
2021/10/23 03:33:41;;;;;;;18.05;12.30;;;;;;;9.78;74.36;95121.16;5114387;27;20023;-69
2021/10/23 03:36:07;;;;;;;19.40;12.32;;;;;;;9.79;74.03;95128.00;5114396;27;20095;-69
2021/10/23 03:38:32;;;;;;;20.63;12.20;;;;;;;9.82;74.25;95132.94;5114381;27;20095;-69
2021/10/23 03:40:58;;;;;;;20.35;12.68;;;;;;;9.77;74.06;95132.47;5131313;27;20042;-69
2021/10/23 03:43:23;;;;;;;20.45;11.77;;;;;;;9.77;74.36;95124.69;5130529;27;20032;-69
2021/10/23 03:45:49;;;;;;;17.58;11.88;;;;;;;9.80;73.94;95124.44;5114114;27;20474;-69
2021/10/23 03:48:14;;;;;;;18.40;11.55;;;;;;;9.84;73.90;95130.25;5114202;27;20046;-69
2021/10/23 03:50:39;;;;;;;18.55;10.95;;;;;;;9.82;74.01;95139.91;5132389;27;20034;-69
2021/10/23 03:53:05;;;;;;;36.40;15.10;;;;;;;9.76;73.61;95154.16;5131252;27;20023;-69
2021/10/23 03:55:30;;;;;;;80.38;28.92;;;;;;;9.60;73.77;95148.47;5114125;27;20353;-68
2021/10/23 03:57:56;;;;;;;31.63;18.27;;;;;;;9.58;74.12;95156.38;5131065;27;20515;-69
2021/10/23 04:00:21;;;;;;;28.05;16.17;;;;;;;9.49;74.21;95145.81;5131024;27;20405;-69
2021/10/23 04:02:47;;;;;;;29.17;17.35;;;;;;;9.48;74.44;95139.00;5130871;27;20042;-69
2021/10/23 04:05:13;;;;;;;26.73;15.88;;;;;;;9.49;74.12;95158.78;5130979;27;20019;-70
2021/10/23 04:07:38;;;;;;;32.60;17.25;;;;;;;9.42;74.31;95155.84;5113883;27;20038;-70
2021/10/23 04:10:04;;;;;;;31.30;18.10;;;;;;;9.38;74.69;95150.00;5113722;27;20027;-69
2021/10/23 04:12:31;;;;;;;30.25;18.98;;;;;;;9.35;74.90;95142.47;5113617;27;20027;-69
2021/10/23 04:14:57;;;;;;;31.58;18.27;;;;;;;9.34;74.57;95169.34;5130960;27;20034;-69
2021/10/23 04:17:22;;;;;;;31.38;19.90;;;;;;;9.23;74.49;95151.13;5113865;27;20039;-69
2021/10/23 04:19:47;;;;;;;32.20;17.10;;;;;;;9.25;74.69;95148.44;5130776;27;20427;-69
2021/10/23 04:22:13;;;;;;;24.42;15.77;;;;;;;9.23;74.83;95142.53;5130894;27;20477;-69
2021/10/23 04:24:39;;;;;;;23.88;15.57;;;;;;;9.25;74.79;95148.44;5096571;27;20023;-69
2021/10/23 04:27:04;;;;;;;29.30;17.17;;;;;;;9.11;74.77;95126.09;5113677;28;20039;-69
2021/10/23 04:29:29;;;;;;;22.15;13.98;;;;;;;9.02;74.83;95114.63;5113684;27;20027;-69
2021/10/23 04:31:55;;;;;;;21.10;14.15;;;;;;;9.19;75.27;95144.50;5130513;27;20097;-69
2021/10/23 04:34:20;;;;;;;21.30;13.35;;;;;;;9.22;75.21;95149.50;5131849;27;20046;-69
2021/10/23 04:36:46;;;;;;;19.50;13.20;;;;;;;9.29;74.99;95155.06;5122885;28;20031;-69
2021/10/23 04:39:11;;;;;;;19.63;13.25;;;;;;;9.41;75.02;95136.00;5111833;28;20023;-69
2021/10/23 04:41:37;;;;;;;23.00;13.23;;;;;;;9.50;74.86;95148.31;5096406;28;20645;-69
2021/10/23 04:44:02;;;;;;;51.63;25.75;;;;;;;9.40;75.10;95139.53;5095218;28;20049;-70
2021/10/23 04:46:28;;;;;;;44.33;21.55;;;;;;;9.48;75.03;95155.38;5130262;27;20034;-69
2021/10/23 04:48:53;;;;;;;48.45;21.40;;;;;;;9.43;74.88;95154.06;5131685;27;20024;-69
2021/10/23 04:51:19;;;;;;;42.85;20.63;;;;;;;9.43;74.90;95149.69;5131824;27;20533;-69
2021/10/23 04:53:44;;;;;;;42.50;20.92;;;;;;;9.43;74.71;95161.84;5113300;28;20541;-69
2021/10/23 04:56:09;;;;;;;52.03;24.88;;;;;;;9.34;74.80;95152.97;5133727;27;20031;-69
2021/10/23 04:58:38;;;;;;;35.35;19.67;;;;;;;9.38;74.97;95160.38;5117399;27;20039;-69
2021/10/23 05:01:04;;;;;;;27.05;14.00;;;;;;;9.47;74.79;95155.47;5134312;27;20130;-69
2021/10/23 05:03:29;;;;;;;21.00;13.15;;;;;;;9.53;75.20;95157.66;5117450;27;20357;-70
2021/10/23 05:05:55;;;;;;;19.90;11.50;;;;;;;9.58;74.78;95160.69;5134609;27;20032;-69
2021/10/23 05:08:20;;;;;;;19.08;12.50;;;;;;;9.67;74.60;95164.38;5134492;27;20019;-69
2021/10/23 05:10:46;;;;;;;18.63;12.52;;;;;;;9.74;74.61;95170.78;5134289;27;20062;-69
2021/10/23 05:13:13;;;;;;;18.23;12.50;;;;;;;9.75;74.83;95175.03;5117345;27;20038;-70
2021/10/23 05:15:38;;;;;;;15.52;10.23;;;;;;;9.78;74.79;95178.25;5134183;27;20109;-69
2021/10/23 05:18:04;;;;;;;19.65;12.20;;;;;;;9.83;74.72;95186.53;5134286;27;20529;-69
2021/10/23 05:20:29;;;;;;;23.88;12.63;;;;;;;9.84;74.54;95187.34;5135372;27;20485;-69
2021/10/23 05:22:54;;;;;;;17.65;11.45;;;;;;;9.88;74.69;95203.50;5133993;27;20031;-68
2021/10/23 05:25:20;;;;;;;18.80;11.45;;;;;;;9.82;74.26;95179.66;5135553;27;20507;-69
2021/10/23 05:27:45;;;;;;;18.67;11.77;;;;;;;9.92;74.39;95199.72;5116763;27;20400;-69
2021/10/23 05:30:11;;;;;;;16.95;11.40;;;;;;;9.96;74.26;95195.97;5134019;27;20520;-69
2021/10/23 05:32:37;;;;;;;17.17;11.00;;;;;;;10.01;74.24;95199.88;5133794;27;20046;-69
2021/10/23 05:35:02;;;;;;;16.88;11.82;;;;;;;10.05;74.38;95205.66;5116760;27;20030;-70
2021/10/23 05:37:28;;;;;;;23.52;14.23;;;;;;;10.02;74.02;95213.69;5116799;27;20155;-69
2021/10/23 05:39:53;;;;;;;34.92;19.48;;;;;;;9.97;74.13;95219.22;5116597;27;20035;-69
2021/10/23 05:42:19;;;;;;;41.72;24.92;;;;;;;9.88;74.40;95227.69;5135258;27;20027;-69
2021/10/23 05:44:44;;;;;;;57.75;29.05;;;;;;;9.93;74.33;95227.34;5116624;27;20030;-70
2021/10/23 05:47:10;;;;;;;37.67;22.17;;;;;;;9.90;74.54;95230.19;5135227;27;20031;-69
2021/10/23 05:49:36;;;;;;;45.88;27.23;;;;;;;9.92;74.67;95228.28;5116536;27;20038;-69
2021/10/23 05:52:01;;;;;;;41.17;24.58;;;;;;;9.95;74.63;95228.06;5116588;27;20042;-69
2021/10/23 05:54:27;;;;;;;36.28;22.63;;;;;;;9.99;74.42;95232.91;5116381;27;20039;-70
2021/10/23 05:56:53;;;;;;;42.75;25.52;;;;;;;10.01;74.33;95231.03;5099423;27;20078;-69
2021/10/23 05:59:18;;;;;;;43.95;27.40;;;;;;;10.06;74.38;95231.53;5116342;27;20027;-69
2021/10/23 06:01:45;;;;;;;51.67;29.45;;;;;;;10.07;74.09;95230.56;5133228;27;20031;-69
2021/10/23 06:04:11;;;;;;;53.63;31.67;;;;;;;10.13;73.89;95239.66;5116258;27;20027;-69
2021/10/23 06:06:37;;;;;;;60.80;33.25;;;;;;;10.14;73.92;95249.13;5115331;27;20156;-69
2021/10/23 06:09:03;;;;;;;59.03;33.78;;;;;;;10.13;73.58;95244.03;5116143;27;20027;-69
2021/10/23 06:11:28;;;;;;;51.47;30.98;;;;;;;10.13;73.74;95250.06;5132981;27;20038;-69
2021/10/23 06:13:56;;;;;;;53.92;30.27;;;;;;;10.17;73.48;95248.91;5116128;27;20212;-69
2021/10/23 06:16:22;;;;;;;59.88;33.80;;;;;;;10.18;73.70;95247.94;5133072;27;20031;-69
2021/10/23 06:18:47;;;;;;;53.53;30.52;;;;;;;10.21;73.36;95258.09;5115899;27;20061;-69
2021/10/23 06:21:13;;;;;;;60.72;33.60;;;;;;;10.26;73.52;95263.78;5115769;27;20047;-69
2021/10/23 06:23:38;;;;;;;56.50;29.77;;;;;;;10.28;73.51;95256.75;5115668;27;20074;-69
2021/10/23 06:26:04;;;;;;;61.72;31.08;;;;;;;10.41;73.57;95258.41;5132923;27;20499;-69
2021/10/23 06:28:29;;;;;;;52.00;30.13;;;;;;;10.42;73.51;95260.91;5132905;27;20023;-69
2021/10/23 06:30:55;;;;;;;73.53;45.60;;;;;;;11.23;78.63;95279.00;5132509;27;20401;-69
2021/10/23 06:33:20;;;;;;;214.85;123.85;;;;;;;12.13;85.09;95271.84;5132690;27;20056;-69
2021/10/23 06:35:46;;;;;;;131.95;54.30;;;;;;;12.62;78.91;95266.94;5115473;27;20027;-69
2021/10/23 06:38:12;;;;;;;106.82;48.10;;;;;;;12.87;79.55;95273.50;5132679;27;20023;-69
2021/10/23 06:40:37;;;;;;;108.57;52.03;;;;;;;12.92;77.08;95273.97;5115503;27;20027;-69
2021/10/23 06:43:03;;;;;;;87.60;38.85;;;;;;;13.01;74.44;95288.84;5132508;27;20027;-69
2021/10/23 06:45:28;;;;;;;77.47;34.42;;;;;;;13.01;71.78;95293.22;5132369;27;20027;-69
2021/10/23 06:47:54;;;;;;;67.10;29.88;;;;;;;13.02;69.56;95289.66;5115256;27;20547;-68
2021/10/23 06:50:20;;;;;;;62.65;32.22;;;;;;;13.12;70.26;95285.28;5115310;27;20037;-69
2021/10/23 06:52:45;;;;;;;86.75;44.38;;;;;;;13.16;67.69;95291.91;5115262;27;20034;-69
2021/10/23 06:55:10;;;;;;;130.43;53.15;;;;;;;13.41;70.65;95288.88;5132387;27;20055;-68
2021/10/23 06:57:36;;;;;;;107.13;47.47;;;;;;;13.60;72.74;95288.09;5132378;27;20039;-68
2021/10/23 07:00:04;;;;;;;76.80;42.15;;;;;;;13.80;71.41;95288.97;5115191;27;20026;-69
2021/10/23 07:02:29;;;;;;;58.47;34.70;;;;;;;14.03;74.20;95286.09;5132159;27;20503;-68
2021/10/23 07:04:54;;;;;;;54.88;30.05;;;;;;;14.04;70.71;95295.56;5097972;27;20031;-68
2021/10/23 07:07:20;;;;;;;38.83;25.13;;;;;;;13.99;68.30;95285.56;5115095;27;20027;-69
2021/10/23 07:09:45;;;;;;;50.60;30.88;;;;;;;13.91;66.11;95277.56;5133193;27;20416;-68
2021/10/23 07:12:11;;;;;;;57.47;32.65;;;;;;;13.84;63.09;95289.50;5133564;27;20027;-68
2021/10/23 07:14:36;;;;;;;64.63;34.20;;;;;;;13.64;64.37;95283.44;5133144;27;20027;-68
2021/10/23 07:17:02;;;;;;;60.63;40.08;;;;;;;13.62;64.80;95285.34;5114588;27;20043;-69
2021/10/23 07:19:27;;;;;;;50.83;29.50;;;;;;;13.67;64.61;95305.84;5114764;27;20062;-69
2021/10/23 07:21:53;;;;;;;61.58;33.97;;;;;;;13.59;64.61;95302.09;5114588;27;20042;-69
2021/10/23 07:24:19;;;;;;;65.40;36.00;;;;;;;13.62;64.04;95314.06;5131981;27;20408;-68
2021/10/23 07:26:46;;;;;;;48.08;28.80;;;;;;;13.30;64.36;95294.19;5131734;27;20068;-68
2021/10/23 07:29:13;;;;;;;50.83;29.08;;;;;;;13.43;64.66;95314.84;5132825;27;20484;-69
2021/10/23 07:31:38;;;;;;;53.55;32.72;;;;;;;13.43;64.85;95309.63;5131346;27;20046;-69
2021/10/23 07:34:04;;;;;;;50.53;28.20;;;;;;;13.41;64.78;95314.97;5132800;27;20496;-69
2021/10/23 07:36:29;;;;;;;40.30;26.05;;;;;;;13.46;64.83;95311.16;5114329;27;20058;-69
2021/10/23 07:38:54;;;;;;;44.63;26.38;;;;;;;13.62;65.17;95303.63;5114358;27;20031;-68
2021/10/23 07:41:20;;;;;;;65.70;43.35;;;;;;;13.77;66.42;95304.09;5131365;27;20084;-68
2021/10/23 07:43:45;;;;;;;49.63;28.05;;;;;;;13.90;65.92;95309.03;5114173;27;20080;-68
2021/10/23 07:46:11;;;;;;;37.83;22.27;;;;;;;13.96;65.71;95300.69;5132624;27;20461;-69
2021/10/23 07:48:37;;;;;;;39.20;22.50;;;;;;;14.13;65.16;95313.06;5114092;27;20024;-69
2021/10/23 07:51:03;;;;;;;34.15;21.92;;;;;;;14.17;64.95;95319.66;5113966;27;20042;-69
2021/10/23 07:53:29;;;;;;;35.83;20.45;;;;;;;14.19;64.64;95311.69;5114208;27;20019;-69
2021/10/23 07:55:54;;;;;;;39.60;21.73;;;;;;;14.26;64.20;95318.00;5131096;27;20497;-68
2021/10/23 07:58:20;;;;;;;44.13;23.55;;;;;;;14.15;63.84;95299.84;5131179;27;20027;-68
2021/10/23 08:00:45;;;;;;;51.20;25.85;;;;;;;14.28;63.80;95327.34;5113817;27;20058;-68
2021/10/23 08:03:11;;;;;;;42.78;22.67;;;;;;;14.29;63.92;95333.41;5131028;27;20030;-69
2021/10/23 08:05:37;;;;;;;47.55;27.77;;;;;;;14.31;63.67;95340.16;5130947;27;20034;-69
2021/10/23 08:08:03;;;;;;;40.60;24.45;;;;;;;14.30;63.69;95335.91;5114185;27;20438;-68
2021/10/23 08:10:29;;;;;;;49.15;29.77;;;;;;;14.36;63.63;95328.47;5130883;27;20030;-68
2021/10/23 08:12:55;;;;;;;43.75;26.40;;;;;;;14.43;63.54;95325.19;5113788;27;20023;-68
2021/10/23 08:15:21;;;;;;;41.10;23.35;;;;;;;14.49;63.04;95331.66;5130824;27;20023;-69
2021/10/23 08:17:46;;;;;;;33.38;21.83;;;;;;;14.65;62.79;95326.69;5113512;27;20023;-68
2021/10/23 08:20:12;;;;;;;35.38;21.75;;;;;;;14.80;63.83;95319.25;5132018;27;20450;-69
2021/10/23 08:22:38;;;;;;;36.05;20.20;;;;;;;15.04;63.13;95339.69;5113718;28;20031;-69
2021/10/23 08:25:05;;;;;;;32.65;20.73;;;;;;;15.24;63.27;95335.25;5096612;27;20416;-69
2021/10/23 08:27:34;;;;;;;36.03;20.58;;;;;;;15.48;63.30;95332.09;5132239;27;20118;-68
2021/10/23 08:30:06;;;;;;;34.67;20.50;;;;;;;15.55;62.82;95325.34;5130116;27;20094;-68
2021/10/23 08:32:31;;;;;;;44.40;22.73;;;;;;;15.86;61.10;95346.84;5130553;27;20051;-68
2021/10/23 08:34:58;;;;;;;33.30;18.65;;;;;;;15.94;59.96;95340.88;5130534;27;20020;-68
2021/10/23 08:37:23;;;;;;;25.90;16.30;;;;;;;16.05;58.83;95332.81;5113395;28;20031;-69
2021/10/23 08:39:49;;;;;;;22.83;14.50;;;;;;;16.23;58.21;95332.00;5113542;28;20019;-69
2021/10/23 08:42:15;;;;;;;29.90;16.50;;;;;;;16.29;55.33;95334.00;5130712;28;20035;-68
2021/10/23 08:44:41;;;;;;;26.40;14.93;;;;;;;16.29;55.86;95318.28;5130409;28;20497;-69
2021/10/23 08:47:07;;;;;;;26.52;16.45;;;;;;;16.36;56.13;95310.66;5130579;28;20058;-68
2021/10/23 08:49:33;;;;;;;27.98;16.88;;;;;;;16.63;56.34;95325.47;5130499;28;20382;-68
2021/10/23 08:51:58;;;;;;;26.05;14.82;;;;;;;16.69;56.26;95327.50;5130234;27;20500;-68
2021/10/23 08:54:25;;;;;;;26.65;15.73;;;;;;;16.84;56.25;95336.47;5113400;28;20042;-68
2021/10/23 08:56:50;;;;;;;24.55;15.73;;;;;;;16.94;54.19;95333.78;5113505;28;20038;-68
2021/10/23 08:59:16;;;;;;;27.80;16.95;;;;;;;16.96;53.27;95323.94;5130340;28;20025;-68
2021/10/23 09:01:41;;;;;;;28.48;17.90;;;;;;;17.02;52.58;95331.22;5131748;27;20035;-69
2021/10/23 09:04:06;;;;;;;30.00;17.05;;;;;;;17.04;52.58;95329.22;5130278;28;20031;-68
2021/10/23 09:06:38;;;;;;;30.83;18.10;;;;;;;17.14;53.16;95324.72;5130410;28;20084;-68
2021/10/23 09:09:12;;;;;;;38.85;20.20;;;;;;;17.27;53.24;95331.34;5130349;28;20067;-69
2021/10/23 09:11:38;;;;;;;42.17;24.88;;;;;;;17.36;52.71;95336.50;5130383;28;20027;-68
2021/10/23 09:14:38;;;;;;;35.65;19.58;;;;;;;17.50;52.47;95337.72;5130218;27;20508;-68
2021/10/23 09:17:08;;;;;;;32.40;19.88;;;;;;;17.39;51.52;95309.91;5130501;28;20027;-69
2021/10/23 09:19:49;;;;;;;28.45;17.90;;;;;;;17.59;52.06;95326.25;5130150;28;20114;-68
2021/10/23 09:22:24;;;;;;;34.83;20.48;;;;;;;17.62;51.56;95330.38;5130376;28;20062;-68
2021/10/23 09:24:50;;;;;;;37.00;21.15;;;;;;;17.60;51.83;95333.16;5131269;27;20023;-68
2021/10/23 09:27:17;;;;;;;37.20;22.02;;;;;;;17.54;51.48;95338.22;5130069;28;20035;-67
2021/10/23 09:29:42;;;;;;;37.22;20.75;;;;;;;17.57;52.10;95330.03;5131300;27;20023;-68
2021/10/23 09:32:11;;;;;;;42.33;23.05;;;;;;;17.61;52.08;95339.25;5131306;27;20051;-67
2021/10/23 09:34:37;;;;;;;33.75;19.52;;;;;;;17.50;52.01;95310.63;5112963;28;20019;-67
2021/10/23 09:37:03;;;;;;;29.48;19.30;;;;;;;17.59;50.88;95331.50;5130039;28;20137;-67
2021/10/23 09:39:33;;;;;;;30.10;18.90;;;;;;;17.48;51.49;95329.16;5130357;28;20023;-68
2021/10/23 09:42:05;;;;;;;27.83;19.08;;;;;;;17.54;51.89;95341.66;5097085;27;20126;-67
2021/10/23 09:44:31;;;;;;;31.52;18.17;;;;;;;17.53;51.74;95341.84;5133676;27;20485;-67
2021/10/23 09:46:56;;;;;;;28.33;16.88;;;;;;;17.51;51.89;95334.09;5099667;27;20039;-67
2021/10/23 09:49:26;;;;;;;34.35;18.95;;;;;;;17.47;51.65;95326.69;5133758;27;20030;-67
2021/10/23 09:52:08;;;;;;;28.98;17.58;;;;;;;17.51;51.82;95339.34;5116614;27;20123;-67
2021/10/23 09:54:35;;;;;;;38.90;22.15;;;;;;;17.46;51.72;95328.50;5117149;27;20030;-67
2021/10/23 09:57:00;;;;;;;38.53;20.42;;;;;;;17.48;51.97;95330.97;5116566;27;20173;-67
2021/10/23 09:59:27;;;;;;;31.92;17.95;;;;;;;17.53;51.98;95331.31;5116189;27;20488;-67
2021/10/23 10:01:56;;;;;;;35.92;20.38;;;;;;;17.55;52.47;95330.19;5133526;27;20088;-67
2021/10/23 10:04:21;;;;;;;32.25;20.15;;;;;;;17.59;52.46;95334.13;5133333;27;20023;-68
2021/10/23 10:06:49;;;;;;;28.77;17.02;;;;;;;17.60;52.38;95332.31;5116300;27;20069;-67
2021/10/23 10:09:19;;;;;;;33.90;21.23;;;;;;;17.56;51.79;95320.50;5099428;27;20450;-67
2021/10/23 10:11:47;;;;;;;38.20;20.63;;;;;;;17.65;52.15;95332.69;5116194;27;20041;-67
2021/10/23 10:14:13;;;;;;;31.80;19.27;;;;;;;17.70;52.34;95330.41;5134422;27;20050;-67
2021/10/23 10:16:42;;;;;;;33.67;18.70;;;;;;;17.74;52.48;95329.09;5133133;27;20488;-68
2021/10/23 10:19:08;;;;;;;28.45;16.55;;;;;;;17.79;52.37;95321.59;5116363;27;20034;-67
2021/10/23 10:21:34;;;;;;;25.58;14.82;;;;;;;17.82;52.26;95318.66;5116016;27;20092;-67
2021/10/23 10:23:59;;;;;;;31.30;17.70;;;;;;;17.84;52.13;95318.50;5132833;27;20023;-68
2021/10/23 10:26:26;;;;;;;26.77;15.85;;;;;;;17.84;51.94;95314.06;5115807;27;20031;-67
2021/10/23 10:29:32;;;;;;;22.67;14.60;;;;;;;17.81;51.79;95309.13;5115993;27;20079;-67
2021/10/23 10:40:01;;;;;;;33.35;21.13;;;;;;;17.80;52.32;95323.25;5124072;27;20031;-68
2021/10/23 10:45:41;;;;;;;26.38;16.52;;;;;;;17.73;52.53;95329.28;5131823;27;20034;-68
2021/10/23 10:48:07;;;;;;;26.30;17.17;;;;;;;17.68;53.09;95335.00;5133767;27;20385;-68
2021/10/23 10:50:36;;;;;;;34.97;18.80;;;;;;;17.57;53.73;95332.66;5132384;27;20029;-68
2021/10/23 10:53:21;;;;;;;34.28;20.52;;;;;;;17.53;54.02;95336.59;5114956;27;20027;-68
2021/10/23 10:56:11;;;;;;;29.80;17.35;;;;;;;17.45;54.72;95333.91;5133637;27;20598;-68
2021/10/23 10:58:47;;;;;;;29.45;16.98;;;;;;;17.32;55.06;95324.63;5132459;27;20031;-68
2021/10/23 11:01:13;;;;;;;62.17;37.95;;;;;;;17.32;56.08;95337.78;5115675;27;20084;-68
2021/10/23 11:03:39;;;;;;;56.92;33.70;;;;;;;17.24;56.45;95332.47;5132117;27;20458;-68
2021/10/23 11:06:30;;;;;;;65.50;38.92;;;;;;;17.17;56.24;95326.22;5132027;27;20038;-68
2021/10/23 11:09:10;;;;;;;46.22;30.65;;;;;;;17.12;56.61;95334.53;5127414;27;20039;-68
2021/10/23 11:11:48;;;;;;;41.05;24.30;;;;;;;17.06;57.83;95336.97;5133396;27;20051;-68
2021/10/23 11:14:31;;;;;;;26.55;18.35;;;;;;;16.97;57.68;95334.28;5133253;27;20492;-68
2021/10/23 11:17:09;;;;;;;27.38;16.38;;;;;;;16.91;57.75;95337.53;5131814;27;20529;-68
2021/10/23 11:19:41;;;;;;;31.10;18.85;;;;;;;16.84;58.32;95331.22;5131800;27;20027;-68
2021/10/23 11:22:09;;;;;;;32.08;18.88;;;;;;;16.79;59.14;95333.50;5114791;27;20042;-68
2021/10/23 11:24:43;;;;;;;33.10;19.70;;;;;;;16.72;59.86;95335.06;5132878;27;20059;-68
2021/10/23 11:27:35;;;;;;;28.45;17.30;;;;;;;16.56;59.96;95324.44;5131883;27;20087;-68